KSVC  Grant County Airport

Add Bookmark

Silver City, New Mexico, United States

Status Useage IATA
Operational Public SVC
Latitude Longitude
32° 38' 11" N 108° 9' 22" W
32.636547 -108.156385
Local (DST -6) UTC (GMT -7)
Sep 23, 2014 06:22 Sep 24, 2014 00:22
Sunrise-Sunset Local UTC
Begin Civil Twilight 06:36 12:36
Sunrise 07:00 13:00
Sunset 07:08 01:08
End Civil Twilight 07:32 01:32

Current Weather

METAR Observed VFR
KSVC 232355Z AUTO 16004KT 10SM CLR 25/14 A3018 Tue, Sep 23, 2014 @ 23:55 UTC
(27 Minutes ago)
Visual Flight Rules
Wind Visibility Clouds Conditions
160° at 4 knots (5 mph) 10 statute miles
  • Clear skies
  • No significant weather
Temperatures Readings Precipitation
Current Temp 25°C (77°F)
Dewpoint 14°C (57°F)
Humidity 51%
Altimeter 30.18"Hg
Sea Level Pressure 1022mb
Field Elevation 5443.01'
None Recorded

Additional weather within a 50nm radius of KSVC

Map ICAO Location
KDMN 31.5nm S (135°)
KLSB 32.6nm S (236°)

24 Hour Weather History

Loading
-

24 Hour Weather Graphs

Loading
-

CheckWX.com is intended as a tool to help pilots better visualize weather data. It is not intended as a substitute for an official weather briefing obtained from a Flight Service Station. CheckWX.com does not meet the FAA requirements for an official pre-flight weather briefing. Therefore, it's important that pilots still call and obtain an official FSS pre-flight weather briefing.